Nolanville, TX (76559)

11:55 AM CST on January 31, 2015 (GMT -0600)
W. Birch St. | Change Station
CLOSE
Current Station
Personal Weather Station
Location: Nolanville, TX
Elevation: 715 ft
Nearby Weather Stations

Elev 715 ft 31.08 °N, 97.59 °W | Updated 7 seconds ago

Overcast
Overcast
49.3 °F
Feels Like 49 °F
N
2.7
Wind Variable Wind from SE
Gusts 3.6 mph

Today
High -- | Low -- °F
--% Chance of Precip.
Yesterday
High -- | Low -- °F
Precip. -- in
7:23 AM 6:04 PM
Waxing Gibbous, 90% visible
Pressure 30.10 in
Visibility 10.0 miles
Clouds Overcast 1100 ft
Windchill 49 °F
Dew Point 41 °F
Humidity 73%
Rainfall 0.00 in
Snow Depth Not available.
UV 1 out of 12
Pollen 7.10 out of 12
Air Quality Not available.
Flu Activity Not available.
METAR KILE 311735Z 10008KT 10SM OVC011 09/02 A3010 RMK AO1

More Conditions Fewer Conditions

Pressure 30.10 in
Visibility 10.0 miles
Clouds Overcast 1100 ft
Windchill 49 °F
Dew Point 41 °F
Humidity 73%
Rainfall 0.00 in
Snow Depth Not available.
UV 1 out of 12
Pollen 7.10 out of 12
Air Quality Not available.
Flu Activity Not available.
METAR KILE 311735Z 10008KT 10SM OVC011 09/02 A3010 RMK AO1

More Conditions Fewer Conditions

Nowcast | as of 10:53 am CST on January 31, 2015

Regional radars indicated that areas of drizzle and light rain were ongoing mainly along and northwest of a Breckenridge to Graham to Bowie line. Areas of drizzle and light rain will gradually overspread portions of north and central Texas into the early afternoon as an upper level low ventures closer to the region. Rainfall amounts through the mid afternoon hours will remain light and most locations across western North Texas will only receive a few hundredths of an inch. Otherwise...skies will remain mostly cloudy with light southeast winds. Temperatures will slowly climb into the low to mid 50s across most of north and central Texas.

×

10-Day Weather Forecast

Almanac

Astronomy

Jan. 31, 2015 Rise Set
Actual Time
Civil Twilight
Nautical Twilight
Astronomical Twilight
Moon
Length of Visible Light
Length of Day
Tomorrow will be .
, % of the Moon is Illuminated

Today's Extremes

State Highs State Lows

Community

WunderPhotos

Upload Photos

1,792,136 photos uploaded!

WunderBlogs® & News

Nearby

Air Quality

  Air Quality AQ Index Pollutant
Not available.

Snow Depth

Station Depth Elevation

Earthquake Activity

City Distance Mag. Time & Date
Minimum magnitude displayed is 2.5.

Coastal Water Temperatures

Place Temperature

Nearby Weather Stations